sensor_id;sensor_type;location;lat;lon;timestamp;P1;durP1;ratioP1;P2;durP2;ratioP2
54557;SDS011;40452;50.080;20.040;2023-06-26T03:18:32;8.32;;;4.80;;
54557;SDS011;40452;50.080;20.040;2023-06-26T03:20:58;6.22;;;4.53;;
54557;SDS011;40452;50.080;20.040;2023-06-26T03:23:24;6.68;;;4.78;;
54557;SDS011;40452;50.080;20.040;2023-06-26T03:25:50;6.85;;;4.53;;
54557;SDS011;40452;50.080;20.040;2023-06-26T03:28:16;6.82;;;4.75;;
54557;SDS011;40452;50.080;20.040;2023-06-26T03:30:42;8.90;;;4.72;;
54557;SDS011;40452;50.080;20.040;2023-06-26T03:33:07;6.90;;;5.00;;
54557;SDS011;40452;50.080;20.040;2023-06-26T03:35:33;8.35;;;5.50;;
54557;SDS011;40452;50.080;20.040;2023-06-26T03:37:59;8.00;;;4.93;;
54557;SDS011;40452;50.080;20.040;2023-06-26T03:40:25;8.40;;;4.90;;
54557;SDS011;40452;50.080;20.040;2023-06-26T03:42:54;5.97;;;4.53;;
54557;SDS011;40452;50.080;20.040;2023-06-26T03:45:19;7.03;;;4.97;;
54557;SDS011;40452;50.080;20.040;2023-06-26T03:47:45;7.07;;;5.10;;
54557;SDS011;40452;50.080;20.040;2023-06-26T03:50:13;10.13;;;5.05;;
54557;SDS011;40452;50.080;20.040;2023-06-26T03:52:40;7.10;;;4.93;;
54557;SDS011;40452;50.080;20.040;2023-06-26T03:55:05;7.35;;;4.95;;
54557;SDS011;40452;50.080;20.040;2023-06-26T03:57:31;10.88;;;5.10;;
54557;SDS011;40452;50.080;20.040;2023-06-26T03:59:57;10.55;;;5.25;;
54557;SDS011;40452;50.080;20.040;2023-06-26T04:02:22;8.27;;;4.93;;
54557;SDS011;40452;50.080;20.040;2023-06-26T04:04:48;8.77;;;5.18;;
54557;SDS011;40452;50.080;20.040;2023-06-26T04:07:15;12.52;;;5.07;;
54557;SDS011;40452;50.080;20.040;2023-06-26T04:09:40;10.38;;;5.78;;
54557;SDS011;40452;50.080;20.040;2023-06-26T04:12:06;10.85;;;6.20;;
54557;SDS011;40452;50.080;20.040;2023-06-26T04:14:31;11.30;;;6.38;;
54557;SDS011;40452;50.080;20.040;2023-06-26T04:16:57;12.57;;;6.72;;
54557;SDS011;40452;50.080;20.040;2023-06-26T04:19:23;12.70;;;6.88;;
54557;SDS011;40452;50.080;20.040;2023-06-26T04:21:49;9.75;;;6.43;;
54557;SDS011;40452;50.080;20.040;2023-06-26T04:24:14;10.43;;;6.55;;
54557;SDS011;40452;50.080;20.040;2023-06-26T04:26:40;12.75;;;6.55;;
54557;SDS011;40452;50.080;20.040;2023-06-26T04:29:10;10.48;;;7.05;;
54557;SDS011;40452;50.080;20.040;2023-06-26T04:31:36;11.73;;;7.43;;
54557;SDS011;40452;50.080;20.040;2023-06-26T04:34:01;12.05;;;7.22;;
54557;SDS011;40452;50.080;20.040;2023-06-26T04:36:27;12.27;;;7.05;;
54557;SDS011;40452;50.080;20.040;2023-06-26T04:38:56;10.50;;;7.00;;
54557;SDS011;40452;50.080;20.040;2023-06-26T04:41:23;15.70;;;7.20;;
54557;SDS011;40452;50.080;20.040;2023-06-26T04:43:49;11.70;;;6.43;;
54557;SDS011;40452;50.080;20.040;2023-06-26T04:46:15;10.48;;;6.18;;
54557;SDS011;40452;50.080;20.040;2023-06-26T04:48:40;10.52;;;6.80;;
54557;SDS011;40452;50.080;20.040;2023-06-26T04:51:06;9.05;;;6.25;;
54557;SDS011;40452;50.080;20.040;2023-06-26T04:53:31;11.90;;;6.30;;
54557;SDS011;40452;50.080;20.040;2023-06-26T04:55:57;10.18;;;6.68;;
54557;SDS011;40452;50.080;20.040;2023-06-26T04:58:22;16.35;;;7.00;;
54557;SDS011;40452;50.080;20.040;2023-06-26T05:00:48;11.00;;;6.63;;
54557;SDS011;40452;50.080;20.040;2023-06-26T05:03:14;11.63;;;6.15;;
54557;SDS011;40452;50.080;20.040;2023-06-26T05:05:44;11.68;;;6.65;;
54557;SDS011;40452;50.080;20.040;2023-06-26T05:08:16;12.38;;;6.68;;
54557;SDS011;40452;50.080;20.040;2023-06-26T05:10:43;12.15;;;6.57;;
54557;SDS011;40452;50.080;20.040;2023-06-26T05:13:09;15.52;;;7.43;;
54557;SDS011;40452;50.080;20.040;2023-06-26T05:15:35;10.70;;;6.45;;
54557;SDS011;40452;50.080;20.040;2023-06-26T05:18:01;13.60;;;7.28;;
54557;SDS011;40452;50.080;20.040;2023-06-26T05:20:26;10.88;;;6.90;;
54557;SDS011;40452;50.080;20.040;2023-06-26T05:22:52;13.65;;;7.00;;
54557;SDS011;40452;50.080;20.040;2023-06-26T05:25:18;14.05;;;7.28;;
54557;SDS011;40452;50.080;20.040;2023-06-26T05:27:46;10.40;;;6.70;;
54557;SDS011;40452;50.080;20.040;2023-06-26T05:30:12;14.35;;;7.15;;
54557;SDS011;40452;50.080;20.040;2023-06-26T05:32:38;12.70;;;6.63;;
54557;SDS011;40452;50.080;20.040;2023-06-26T05:35:05;14.88;;;6.90;;
54557;SDS011;40452;50.080;20.040;2023-06-26T05:37:32;10.57;;;6.85;;
54557;SDS011;40452;50.080;20.040;2023-06-26T05:40:00;11.55;;;6.50;;
54557;SDS011;40452;50.080;20.040;2023-06-26T05:42:29;10.43;;;5.65;;
54557;SDS011;40452;50.080;20.040;2023-06-26T05:44:55;11.50;;;5.88;;
54557;SDS011;40452;50.080;20.040;2023-06-26T05:47:20;10.02;;;5.70;;
54557;SDS011;40452;50.080;20.040;2023-06-26T05:49:46;7.95;;;5.03;;
54557;SDS011;40452;50.080;20.040;2023-06-26T05:52:12;8.60;;;5.95;;
54557;SDS011;40452;50.080;20.040;2023-06-26T05:54:38;9.25;;;5.22;;
54557;SDS011;40452;50.080;20.040;2023-06-26T05:57:04;13.18;;;5.07;;
54557;SDS011;40452;50.080;20.040;2023-06-26T05:59:33;11.68;;;4.90;;
54557;SDS011;40452;50.080;20.040;2023-06-26T06:02:01;9.25;;;6.10;;
54557;SDS011;40452;50.080;20.040;2023-06-26T06:04:27;9.98;;;6.00;;
54557;SDS011;40452;50.080;20.040;2023-06-26T06:06:53;11.90;;;6.20;;
54557;SDS011;40452;50.080;20.040;2023-06-26T06:09:18;10.23;;;6.22;;
54557;SDS011;40452;50.080;20.040;2023-06-26T06:11:44;12.52;;;5.90;;
54557;SDS011;40452;50.080;20.040;2023-06-26T06:14:10;10.07;;;6.15;;
54557;SDS011;40452;50.080;20.040;2023-06-26T06:16:35;9.98;;;5.88;;
54557;SDS011;40452;50.080;20.040;2023-06-26T06:19:01;10.70;;;5.75;;
54557;SDS011;40452;50.080;20.040;2023-06-26T06:21:28;8.57;;;5.55;;
54557;SDS011;40452;50.080;20.040;2023-06-26T06:23:53;10.27;;;6.35;;
54557;SDS011;40452;50.080;20.040;2023-06-26T06:26:19;11.52;;;6.50;;
54557;SDS011;40452;50.080;20.040;2023-06-26T06:28:45;13.55;;;6.05;;
54557;SDS011;40452;50.080;20.040;2023-06-26T06:31:10;8.80;;;5.90;;
54557;SDS011;40452;50.080;20.040;2023-06-26T06:33:36;10.32;;;5.75;;
54557;SDS011;40452;50.080;20.040;2023-06-26T06:36:01;11.85;;;6.43;;
54557;SDS011;40452;50.080;20.040;2023-06-26T06:38:27;11.00;;;5.80;;
54557;SDS011;40452;50.080;20.040;2023-06-26T06:40:52;11.10;;;6.38;;
54557;SDS011;40452;50.080;20.040;2023-06-26T06:43:18;10.70;;;5.68;;
54557;SDS011;40452;50.080;20.040;2023-06-26T06:45:44;12.35;;;5.60;;
54557;SDS011;40452;50.080;20.040;2023-06-26T06:48:10;10.60;;;6.53;;
54557;SDS011;40452;50.080;20.040;2023-06-26T06:50:35;14.85;;;5.95;;
54557;SDS011;40452;50.080;20.040;2023-06-26T06:53:01;11.50;;;6.57;;
54557;SDS011;40452;50.080;20.040;2023-06-26T06:55:27;10.05;;;6.38;;
54557;SDS011;40452;50.080;20.040;2023-06-26T06:57:52;14.30;;;6.18;;
54557;SDS011;40452;50.080;20.040;2023-06-26T07:00:18;12.50;;;6.60;;
54557;SDS011;40452;50.080;20.040;2023-06-26T07:02:44;10.50;;;6.28;;
54557;SDS011;40452;50.080;20.040;2023-06-26T07:05:10;11.10;;;5.70;;
54557;SDS011;40452;50.080;20.040;2023-06-26T07:07:37;7.82;;;5.78;;
54557;SDS011;40452;50.080;20.040;2023-06-26T07:10:04;11.23;;;5.57;;
54557;SDS011;40452;50.080;20.040;2023-06-26T07:12:34;12.02;;;5.47;;
54557;SDS011;40452;50.080;20.040;2023-06-26T07:15:01;10.27;;;6.10;;
54557;SDS011;40452;50.080;20.040;2023-06-26T07:17:29;12.10;;;6.03;;
54557;SDS011;40452;50.080;20.040;2023-06-26T07:19:55;12.65;;;6.40;;
54557;SDS011;40452;50.080;20.040;2023-06-26T07:22:21;11.40;;;5.47;;
54557;SDS011;40452;50.080;20.040;2023-06-26T07:24:47;8.40;;;5.57;;
54557;SDS011;40452;50.080;20.040;2023-06-26T07:27:14;9.52;;;6.25;;
54557;SDS011;40452;50.080;20.040;2023-06-26T07:29:40;8.68;;;5.47;;
54557;SDS011;40452;50.080;20.040;2023-06-26T07:32:05;10.32;;;5.13;;
54557;SDS011;40452;50.080;20.040;2023-06-26T07:34:31;9.65;;;5.15;;
54557;SDS011;40452;50.080;20.040;2023-06-26T07:36:57;7.85;;;5.10;;
54557;SDS011;40452;50.080;20.040;2023-06-26T07:39:22;10.18;;;5.63;;
54557;SDS011;40452;50.080;20.040;2023-06-26T07:41:48;8.95;;;6.10;;
54557;SDS011;40452;50.080;20.040;2023-06-26T07:44:13;8.88;;;4.72;;
54557;SDS011;40452;50.080;20.040;2023-06-26T07:46:39;7.47;;;4.90;;
54557;SDS011;40452;50.080;20.040;2023-06-26T07:49:04;9.45;;;5.47;;
54557;SDS011;40452;50.080;20.040;2023-06-26T07:51:30;11.15;;;4.80;;
54557;SDS011;40452;50.080;20.040;2023-06-26T07:53:56;8.50;;;4.95;;
54557;SDS011;40452;50.080;20.040;2023-06-26T07:56:22;6.97;;;4.72;;
54557;SDS011;40452;50.080;20.040;2023-06-26T07:58:48;10.07;;;5.20;;
54557;SDS011;40452;50.080;20.040;2023-06-26T08:01:13;7.50;;;5.32;;
54557;SDS011;40452;50.080;20.040;2023-06-26T08:03:39;8.35;;;4.72;;
54557;SDS011;40452;50.080;20.040;2023-06-26T08:06:05;10.43;;;5.90;;
54557;SDS011;40452;50.080;20.040;2023-06-26T08:08:31;7.35;;;4.43;;
54557;SDS011;40452;50.080;20.040;2023-06-26T08:10:56;7.70;;;4.45;;
54557;SDS011;40452;50.080;20.040;2023-06-26T08:13:22;8.85;;;4.22;;
54557;SDS011;40452;50.080;20.040;2023-06-26T08:15:47;6.82;;;4.20;;
54557;SDS011;40452;50.080;20.040;2023-06-26T08:18:13;5.18;;;3.58;;
54557;SDS011;40452;50.080;20.040;2023-06-26T08:20:39;7.53;;;3.42;;
54557;SDS011;40452;50.080;20.040;2023-06-26T08:23:04;5.07;;;3.60;;
54557;SDS011;40452;50.080;20.040;2023-06-26T08:25:30;6.10;;;3.38;;
54557;SDS011;40452;50.080;20.040;2023-06-26T08:27:55;7.68;;;3.97;;
54557;SDS011;40452;50.080;20.040;2023-06-26T08:30:21;7.72;;;3.88;;
54557;SDS011;40452;50.080;20.040;2023-06-26T08:32:50;7.53;;;4.22;;
54557;SDS011;40452;50.080;20.040;2023-06-26T08:35:16;7.07;;;4.00;;
54557;SDS011;40452;50.080;20.040;2023-06-26T08:37:41;8.52;;;4.20;;
54557;SDS011;40452;50.080;20.040;2023-06-26T08:40:07;7.47;;;4.20;;
54557;SDS011;40452;50.080;20.040;2023-06-26T08:42:33;6.28;;;3.92;;
54557;SDS011;40452;50.080;20.040;2023-06-26T08:44:59;7.55;;;3.60;;
54557;SDS011;40452;50.080;20.040;2023-06-26T08:47:25;5.30;;;3.50;;
54557;SDS011;40452;50.080;20.040;2023-06-26T08:49:53;8.02;;;3.80;;
54557;SDS011;40452;50.080;20.040;2023-06-26T08:52:46;9.23;;;3.88;;
54557;SDS011;40452;50.080;20.040;2023-06-26T08:55:17;5.38;;;3.70;;
54557;SDS011;40452;50.080;20.040;2023-06-26T08:57:46;8.07;;;4.10;;
54557;SDS011;40452;50.080;20.040;2023-06-26T09:00:12;7.68;;;3.85;;
54557;SDS011;40452;50.080;20.040;2023-06-26T09:02:39;7.78;;;3.53;;
54557;SDS011;40452;50.080;20.040;2023-06-26T09:05:06;9.60;;;3.97;;
54557;SDS011;40452;50.080;20.040;2023-06-26T09:07:32;6.82;;;3.90;;
54557;SDS011;40452;50.080;20.040;2023-06-26T09:09:57;7.35;;;4.00;;
54557;SDS011;40452;50.080;20.040;2023-06-26T09:12:23;5.88;;;3.90;;
54557;SDS011;40452;50.080;20.040;2023-06-26T09:14:52;5.18;;;3.70;;
54557;SDS011;40452;50.080;20.040;2023-06-26T09:17:19;6.85;;;3.60;;
54557;SDS011;40452;50.080;20.040;2023-06-26T09:19:50;5.22;;;3.88;;
54557;SDS011;40452;50.080;20.040;2023-06-26T09:22:15;6.88;;;4.13;;
54557;SDS011;40452;50.080;20.040;2023-06-26T09:24:42;5.43;;;3.80;;
54557;SDS011;40452;50.080;20.040;2023-06-26T09:27:09;4.75;;;3.90;;
54557;SDS011;40452;50.080;20.040;2023-06-26T09:29:35;6.95;;;3.83;;
54557;SDS011;40452;50.080;20.040;2023-06-26T09:32:01;4.72;;;3.80;;
54557;SDS011;40452;50.080;20.040;2023-06-26T09:34:30;5.90;;;3.60;;
54557;SDS011;40452;50.080;20.040;2023-06-26T09:36:57;5.15;;;3.72;;
54557;SDS011;40452;50.080;20.040;2023-06-26T09:39:23;6.07;;;3.55;;
54557;SDS011;40452;50.080;20.040;2023-06-26T09:41:49;6.15;;;3.90;;
54557;SDS011;40452;50.080;20.040;2023-06-26T09:44:15;5.15;;;3.83;;
54557;SDS011;40452;50.080;20.040;2023-06-26T09:46:44;7.80;;;3.80;;
54557;SDS011;40452;50.080;20.040;2023-06-26T09:49:11;6.85;;;3.60;;
54557;SDS011;40452;50.080;20.040;2023-06-26T09:51:38;6.13;;;3.90;;
54557;SDS011;40452;50.080;20.040;2023-06-26T09:54:05;10.48;;;4.05;;
54557;SDS011;40452;50.080;20.040;2023-06-26T09:56:32;4.68;;;3.38;;
54557;SDS011;40452;50.080;20.040;2023-06-26T09:59:02;7.63;;;3.85;;
54557;SDS011;40452;50.080;20.040;2023-06-26T10:01:29;5.88;;;3.75;;
54557;SDS011;40452;50.080;20.040;2023-06-26T10:03:56;5.15;;;3.45;;
54557;SDS011;40452;50.080;20.040;2023-06-26T10:06:24;6.53;;;3.78;;
54557;SDS011;40452;50.080;20.040;2023-06-26T10:08:52;8.07;;;4.20;;
54557;SDS011;40452;50.080;20.040;2023-06-26T10:11:19;6.25;;;4.00;;
54557;SDS011;40452;50.080;20.040;2023-06-26T10:13:47;5.97;;;3.50;;
54557;SDS011;40452;50.080;20.040;2023-06-26T10:16:21;7.18;;;4.05;;
54557;SDS011;40452;50.080;20.040;2023-06-26T10:18:51;8.38;;;3.53;;
54557;SDS011;40452;50.080;20.040;2023-06-26T10:21:21;4.70;;;3.50;;
54557;SDS011;40452;50.080;20.040;2023-06-26T10:23:48;5.68;;;3.47;;
54557;SDS011;40452;50.080;20.040;2023-06-26T10:26:16;6.72;;;4.35;;
54557;SDS011;40452;50.080;20.040;2023-06-26T10:28:46;7.90;;;3.67;;
54557;SDS011;40452;50.080;20.040;2023-06-26T10:31:17;6.07;;;4.00;;
54557;SDS011;40452;50.080;20.040;2023-06-26T10:36:15;7.45;;;4.07;;
54557;SDS011;40452;50.080;20.040;2023-06-26T10:38:48;7.53;;;4.57;;
54557;SDS011;40452;50.080;20.040;2023-06-26T10:41:15;6.72;;;4.00;;
54557;SDS011;40452;50.080;20.040;2023-06-26T10:43:48;5.03;;;3.63;;
54557;SDS011;40452;50.080;20.040;2023-06-26T10:46:23;5.68;;;3.90;;
54557;SDS011;40452;50.080;20.040;2023-06-26T10:48:56;6.90;;;3.70;;
54557;SDS011;40452;50.080;20.040;2023-06-26T10:51:22;7.85;;;3.78;;
54557;SDS011;40452;50.080;20.040;2023-06-26T10:53:53;4.88;;;3.30;;
54557;SDS011;40452;50.080;20.040;2023-06-26T10:56:43;4.43;;;2.97;;
54557;SDS011;40452;50.080;20.040;2023-06-26T10:59:21;6.55;;;2.85;;
54557;SDS011;40452;50.080;20.040;2023-06-26T11:07:21;4.20;;;2.92;;
54557;SDS011;40452;50.080;20.040;2023-06-26T11:12:44;5.88;;;3.35;;
54557;SDS011;40452;50.080;20.040;2023-06-26T11:15:13;5.75;;;3.35;;
54557;SDS011;40452;50.080;20.040;2023-06-26T11:17:41;6.30;;;3.20;;
54557;SDS011;40452;50.080;20.040;2023-06-26T11:20:11;5.10;;;3.00;;
54557;SDS011;40452;50.080;20.040;2023-06-26T11:22:39;4.07;;;2.97;;
54557;SDS011;40452;50.080;20.040;2023-06-26T11:25:06;5.70;;;3.40;;
54557;SDS011;40452;50.080;20.040;2023-06-26T11:27:42;6.60;;;3.28;;
54557;SDS011;40452;50.080;20.040;2023-06-26T11:30:09;7.00;;;4.13;;
54557;SDS011;40452;50.080;20.040;2023-06-26T11:32:36;6.88;;;3.80;;
54557;SDS011;40452;50.080;20.040;2023-06-26T11:35:03;4.20;;;2.97;;
54557;SDS011;40452;50.080;20.040;2023-06-26T11:37:32;4.43;;;3.07;;
54557;SDS011;40452;50.080;20.040;2023-06-26T11:39:58;4.75;;;3.20;;
54557;SDS011;40452;50.080;20.040;2023-06-26T11:42:24;4.18;;;2.83;;
54557;SDS011;40452;50.080;20.040;2023-06-26T11:44:50;5.95;;;2.83;;
54557;SDS011;40452;50.080;20.040;2023-06-26T11:47:17;4.68;;;2.80;;
54557;SDS011;40452;50.080;20.040;2023-06-26T11:49:45;6.93;;;3.03;;
54557;SDS011;40452;50.080;20.040;2023-06-26T11:52:14;4.72;;;3.05;;
54557;SDS011;40452;50.080;20.040;2023-06-26T11:54:41;4.63;;;3.00;;
54557;SDS011;40452;50.080;20.040;2023-06-26T11:57:07;4.25;;;2.70;;
54557;SDS011;40452;50.080;20.040;2023-06-26T11:59:37;4.13;;;2.88;;
54557;SDS011;40452;50.080;20.040;2023-06-26T12:02:07;4.50;;;2.80;;
54557;SDS011;40452;50.080;20.040;2023-06-26T12:04:35;4.65;;;3.03;;
54557;SDS011;40452;50.080;20.040;2023-06-26T12:07:02;4.72;;;2.90;;
54557;SDS011;40452;50.080;20.040;2023-06-26T12:09:30;5.70;;;3.25;;
54557;SDS011;40452;50.080;20.040;2023-06-26T12:11:58;5.40;;;3.03;;
54557;SDS011;40452;50.080;20.040;2023-06-26T12:14:25;4.80;;;3.30;;
54557;SDS011;40452;50.080;20.040;2023-06-26T12:16:53;6.80;;;3.20;;
54557;SDS011;40452;50.080;20.040;2023-06-26T12:19:24;8.40;;;2.92;;
54557;SDS011;40452;50.080;20.040;2023-06-26T12:21:51;4.10;;;3.25;;
54557;SDS011;40452;50.080;20.040;2023-06-26T12:24:20;5.00;;;3.65;;
54557;SDS011;40452;50.080;20.040;2023-06-26T12:26:50;4.82;;;3.45;;
54557;SDS011;40452;50.080;20.040;2023-06-26T12:29:22;9.07;;;3.47;;
54557;SDS011;40452;50.080;20.040;2023-06-26T12:31:56;5.65;;;3.45;;
54557;SDS011;40452;50.080;20.040;2023-06-26T12:34:28;5.55;;;3.95;;
54557;SDS011;40452;50.080;20.040;2023-06-26T12:37:02;5.75;;;4.07;;
54557;SDS011;40452;50.080;20.040;2023-06-26T12:42:13;4.82;;;3.40;;
54557;SDS011;40452;50.080;20.040;2023-06-26T12:44:40;6.90;;;3.22;;
54557;SDS011;40452;50.080;20.040;2023-06-26T12:47:06;5.97;;;3.25;;
54557;SDS011;40452;50.080;20.040;2023-06-26T12:52:04;5.22;;;3.42;;
54557;SDS011;40452;50.080;20.040;2023-06-26T12:54:32;6.40;;;3.60;;
54557;SDS011;40452;50.080;20.040;2023-06-26T12:57:02;6.80;;;3.88;;
54557;SDS011;40452;50.080;20.040;2023-06-26T12:59:31;4.68;;;3.30;;
54557;SDS011;40452;50.080;20.040;2023-06-26T13:01:57;4.88;;;3.75;;
54557;SDS011;40452;50.080;20.040;2023-06-26T13:04:24;4.78;;;3.55;;
54557;SDS011;40452;50.080;20.040;2023-06-26T13:06:49;6.10;;;3.83;;
54557;SDS011;40452;50.080;20.040;2023-06-26T13:09:16;5.35;;;3.55;;
54557;SDS011;40452;50.080;20.040;2023-06-26T13:11:42;5.13;;;3.60;;
54557;SDS011;40452;50.080;20.040;2023-06-26T13:14:07;5.55;;;3.45;;
54557;SDS011;40452;50.080;20.040;2023-06-26T13:16:33;4.75;;;3.90;;
54557;SDS011;40452;50.080;20.040;2023-06-26T13:18:59;5.65;;;3.80;;
54557;SDS011;40452;50.080;20.040;2023-06-26T13:21:26;7.32;;;3.95;;
54557;SDS011;40452;50.080;20.040;2023-06-26T13:23:52;5.13;;;3.88;;
54557;SDS011;40452;50.080;20.040;2023-06-26T13:26:19;6.28;;;3.60;;
54557;SDS011;40452;50.080;20.040;2023-06-26T13:28:46;5.45;;;3.60;;
54557;SDS011;40452;50.080;20.040;2023-06-26T13:31:13;7.82;;;4.10;;
54557;SDS011;40452;50.080;20.040;2023-06-26T13:33:38;6.30;;;4.18;;
54557;SDS011;40452;50.080;20.040;2023-06-26T13:36:04;5.15;;;3.90;;
54557;SDS011;40452;50.080;20.040;2023-06-26T13:38:32;5.32;;;4.15;;
54557;SDS011;40452;50.080;20.040;2023-06-26T13:40:58;5.75;;;4.20;;
54557;SDS011;40452;50.080;20.040;2023-06-26T13:43:26;6.18;;;4.65;;
54557;SDS011;40452;50.080;20.040;2023-06-26T13:45:52;6.45;;;4.13;;
54557;SDS011;40452;50.080;20.040;2023-06-26T13:48:17;10.18;;;5.25;;
54557;SDS011;40452;50.080;20.040;2023-06-26T13:50:43;12.75;;;4.85;;
54557;SDS011;40452;50.080;20.040;2023-06-26T13:53:10;8.18;;;4.72;;
54557;SDS011;40452;50.080;20.040;2023-06-26T13:55:35;6.90;;;4.65;;
54557;SDS011;40452;50.080;20.040;2023-06-26T13:58:02;8.68;;;4.70;;
54557;SDS011;40452;50.080;20.040;2023-06-26T14:00:31;6.38;;;4.07;;
54557;SDS011;40452;50.080;20.040;2023-06-26T14:02:58;7.45;;;3.97;;
54557;SDS011;40452;50.080;20.040;2023-06-26T14:05:25;7.88;;;4.85;;
54557;SDS011;40452;50.080;20.040;2023-06-26T14:07:50;7.88;;;4.35;;
54557;SDS011;40452;50.080;20.040;2023-06-26T14:10:16;6.22;;;4.35;;
54557;SDS011;40452;50.080;20.040;2023-06-26T14:12:41;7.78;;;4.25;;
54557;SDS011;40452;50.080;20.040;2023-06-26T14:15:07;7.47;;;4.45;;
54557;SDS011;40452;50.080;20.040;2023-06-26T14:17:34;6.63;;;4.40;;
54557;SDS011;40452;50.080;20.040;2023-06-26T14:19:59;5.40;;;3.88;;
54557;SDS011;40452;50.080;20.040;2023-06-26T14:22:25;7.65;;;4.32;;
54557;SDS011;40452;50.080;20.040;2023-06-26T14:24:51;6.60;;;4.28;;
54557;SDS011;40452;50.080;20.040;2023-06-26T14:27:16;6.10;;;4.32;;
54557;SDS011;40452;50.080;20.040;2023-06-26T14:29:42;6.38;;;3.88;;
54557;SDS011;40452;50.080;20.040;2023-06-26T14:32:07;9.80;;;4.18;;
54557;SDS011;40452;50.080;20.040;2023-06-26T14:34:33;6.85;;;4.30;;
54557;SDS011;40452;50.080;20.040;2023-06-26T14:36:59;6.30;;;4.35;;
54557;SDS011;40452;50.080;20.040;2023-06-26T14:39:24;4.90;;;3.97;;
54557;SDS011;40452;50.080;20.040;2023-06-26T14:41:50;5.60;;;4.30;;
54557;SDS011;40452;50.080;20.040;2023-06-26T14:44:15;5.05;;;3.88;;
54557;SDS011;40452;50.080;20.040;2023-06-26T14:46:41;5.30;;;3.95;;
54557;SDS011;40452;50.080;20.040;2023-06-26T14:49:07;6.53;;;4.20;;
54557;SDS011;40452;50.080;20.040;2023-06-26T14:51:33;6.95;;;4.25;;
54557;SDS011;40452;50.080;20.040;2023-06-26T14:53:59;7.47;;;4.10;;
54557;SDS011;40452;50.080;20.040;2023-06-26T14:56:25;6.65;;;4.30;;
54557;SDS011;40452;50.080;20.040;2023-06-26T14:58:50;5.63;;;3.70;;
54557;SDS011;40452;50.080;20.040;2023-06-26T15:01:17;5.20;;;4.10;;
54557;SDS011;40452;50.080;20.040;2023-06-26T15:03:44;6.53;;;4.07;;
54557;SDS011;40452;50.080;20.040;2023-06-26T15:06:11;7.65;;;4.40;;
54557;SDS011;40452;50.080;20.040;2023-06-26T15:08:36;5.95;;;3.92;;
54557;SDS011;40452;50.080;20.040;2023-06-26T15:11:02;5.85;;;4.30;;
54557;SDS011;40452;50.080;20.040;2023-06-26T15:13:28;8.07;;;4.30;;
54557;SDS011;40452;50.080;20.040;2023-06-26T15:15:53;6.28;;;4.43;;
54557;SDS011;40452;50.080;20.040;2023-06-26T15:18:19;6.03;;;4.43;;
54557;SDS011;40452;50.080;20.040;2023-06-26T15:20:45;12.38;;;4.53;;
54557;SDS011;40452;50.080;20.040;2023-06-26T15:23:10;7.15;;;4.43;;
54557;SDS011;40452;50.080;20.040;2023-06-26T15:25:36;22.30;;;4.50;;
54557;SDS011;40452;50.080;20.040;2023-06-26T15:28:02;7.85;;;4.15;;
54557;SDS011;40452;50.080;20.040;2023-06-26T15:30:28;9.98;;;4.43;;
54557;SDS011;40452;50.080;20.040;2023-06-26T15:32:54;7.45;;;4.63;;
54557;SDS011;40452;50.080;20.040;2023-06-26T15:35:20;8.38;;;4.50;;
54557;SDS011;40452;50.080;20.040;2023-06-26T15:37:45;6.65;;;4.70;;
54557;SDS011;40452;50.080;20.040;2023-06-26T15:40:11;6.18;;;4.95;;
54557;SDS011;40452;50.080;20.040;2023-06-26T15:42:50;7.57;;;4.45;;
54557;SDS011;40452;50.080;20.040;2023-06-26T15:45:20;5.68;;;4.53;;
54557;SDS011;40452;50.080;20.040;2023-06-26T15:47:48;12.02;;;4.40;;
54557;SDS011;40452;50.080;20.040;2023-06-26T15:50:14;6.65;;;4.68;;
54557;SDS011;40452;50.080;20.040;2023-06-26T15:52:39;7.97;;;4.60;;
54557;SDS011;40452;50.080;20.040;2023-06-26T15:55:20;5.30;;;4.32;;
54557;SDS011;40452;50.080;20.040;2023-06-26T15:57:59;10.25;;;4.60;;
54557;SDS011;40452;50.080;20.040;2023-06-26T16:00:25;7.03;;;4.13;;
54557;SDS011;40452;50.080;20.040;2023-06-26T16:02:53;9.60;;;4.60;;
54557;SDS011;40452;50.080;20.040;2023-06-26T16:05:28;5.78;;;4.35;;
54557;SDS011;40452;50.080;20.040;2023-06-26T16:07:53;7.25;;;4.30;;
54557;SDS011;40452;50.080;20.040;2023-06-26T16:10:28;7.78;;;4.50;;
54557;SDS011;40452;50.080;20.040;2023-06-26T16:12:54;6.43;;;4.70;;
54557;SDS011;40452;50.080;20.040;2023-06-26T16:15:20;10.77;;;4.63;;
54557;SDS011;40452;50.080;20.040;2023-06-26T16:17:45;6.15;;;4.10;;
54557;SDS011;40452;50.080;20.040;2023-06-26T16:20:14;10.05;;;4.32;;
54557;SDS011;40452;50.080;20.040;2023-06-26T16:22:39;9.05;;;4.60;;
54557;SDS011;40452;50.080;20.040;2023-06-26T16:25:05;6.18;;;4.47;;
54557;SDS011;40452;50.080;20.040;2023-06-26T16:27:36;6.30;;;4.30;;
54557;SDS011;40452;50.080;20.040;2023-06-26T16:30:02;9.23;;;4.65;;
54557;SDS011;40452;50.080;20.040;2023-06-26T16:32:28;6.30;;;4.60;;
54557;SDS011;40452;50.080;20.040;2023-06-26T16:34:53;6.95;;;4.50;;
54557;SDS011;40452;50.080;20.040;2023-06-26T16:37:19;9.63;;;4.70;;
54557;SDS011;40452;50.080;20.040;2023-06-26T16:39:45;6.80;;;4.78;;
54557;SDS011;40452;50.080;20.040;2023-06-26T16:42:10;6.63;;;3.83;;
54557;SDS011;40452;50.080;20.040;2023-06-26T16:44:39;7.72;;;4.50;;
54557;SDS011;40452;50.080;20.040;2023-06-26T16:47:04;7.07;;;4.03;;
54557;SDS011;40452;50.080;20.040;2023-06-26T16:49:31;8.35;;;4.60;;
54557;SDS011;40452;50.080;20.040;2023-06-26T16:51:59;9.20;;;4.60;;
54557;SDS011;40452;50.080;20.040;2023-06-26T16:54:27;7.68;;;4.47;;
54557;SDS011;40452;50.080;20.040;2023-06-26T16:56:52;6.28;;;4.65;;
54557;SDS011;40452;50.080;20.040;2023-06-26T16:59:25;5.82;;;4.35;;
54557;SDS011;40452;50.080;20.040;2023-06-26T17:01:51;4.78;;;4.03;;
54557;SDS011;40452;50.080;20.040;2023-06-26T17:04:18;6.18;;;4.20;;
54557;SDS011;40452;50.080;20.040;2023-06-26T17:06:45;6.63;;;4.13;;
54557;SDS011;40452;50.080;20.040;2023-06-26T17:09:11;5.45;;;4.13;;
54557;SDS011;40452;50.080;20.040;2023-06-26T17:11:36;9.13;;;4.35;;
54557;SDS011;40452;50.080;20.040;2023-06-26T17:14:03;6.18;;;4.28;;
54557;SDS011;40452;50.080;20.040;2023-06-26T17:16:31;9.27;;;4.85;;
54557;SDS011;40452;50.080;20.040;2023-06-26T17:18:57;7.32;;;4.18;;
54557;SDS011;40452;50.080;20.040;2023-06-26T17:21:22;6.22;;;4.03;;
54557;SDS011;40452;50.080;20.040;2023-06-26T17:23:48;5.97;;;4.25;;
54557;SDS011;40452;50.080;20.040;2023-06-26T17:26:16;6.13;;;4.53;;
54557;SDS011;40452;50.080;20.040;2023-06-26T17:28:45;4.82;;;3.92;;
54557;SDS011;40452;50.080;20.040;2023-06-26T17:31:11;5.68;;;3.90;;
54557;SDS011;40452;50.080;20.040;2023-06-26T17:33:37;5.45;;;4.20;;
54557;SDS011;40452;50.080;20.040;2023-06-26T17:36:03;5.80;;;4.00;;
54557;SDS011;40452;50.080;20.040;2023-06-26T17:38:29;6.88;;;4.53;;
54557;SDS011;40452;50.080;20.040;2023-06-26T17:40:55;8.73;;;4.15;;
54557;SDS011;40452;50.080;20.040;2023-06-26T17:43:21;6.57;;;4.20;;
54557;SDS011;40452;50.080;20.040;2023-06-26T17:45:47;8.88;;;5.50;;
54557;SDS011;40452;50.080;20.040;2023-06-26T17:48:16;8.55;;;4.50;;
54557;SDS011;40452;50.080;20.040;2023-06-26T17:50:41;6.93;;;4.63;;
54557;SDS011;40452;50.080;20.040;2023-06-26T17:53:07;6.50;;;4.80;;
54557;SDS011;40452;50.080;20.040;2023-06-26T17:55:32;8.95;;;4.72;;
54557;SDS011;40452;50.080;20.040;2023-06-26T17:57:58;6.35;;;4.63;;
54557;SDS011;40452;50.080;20.040;2023-06-26T18:00:26;10.15;;;5.10;;
54557;SDS011;40452;50.080;20.040;2023-06-26T18:02:55;6.60;;;4.80;;